Time,TemperatureF,DewpointF,PressureIn,WindDirection,WindDirectionDegrees,WindSpeedMPH,WindSpeedGustMPH,Humidity,HourlyPrecipIn,Conditions,Clouds,dailyrainin,SoftwareType,DateUTC
2013-06-12 00:01:00,69.8,66.1,29.79,NE,45,1.6,0.0,88,0.00,RA,,0.00,WeatherDisplay:10.37,2013-06-12 04:01:00,
2013-06-12 00:02:00,69.8,66.1,29.78,NE,45,1.2,0.0,88,0.00,RA,,0.00,WeatherDisplay:10.37,2013-06-12 04:02:00,
2013-06-12 00:07:00,69.8,66.1,29.79,NE,45,1.2,0.0,88,0.00,RA,,0.00,WeatherDisplay:10.37,2013-06-12 04:07:00,
2013-06-12 00:12:00,69.6,65.9,29.79,North,0,3.5,3.5,88,0.00,CLR,,0.00,WeatherDisplay:10.37,2013-06-12 04:12:00,
2013-06-12 00:17:00,69.6,65.9,29.79,West,270,3.5,3.5,88,0.00,CLR,,0.00,WeatherDisplay:10.37,2013-06-12 04:17:00,
2013-06-12 00:22:00,69.4,65.7,29.79,NW,315,3.5,3.5,88,0.00,CLR,,0.00,WeatherDisplay:10.37,2013-06-12 04:22:00,
2013-06-12 00:27:00,69.3,65.6,29.78,SSW,202,3.5,3.5,88,0.00,CLR,,0.00,WeatherDisplay:10.37,2013-06-12 04:27:00,
2013-06-12 00:32:00,69.3,65.6,29.79,NW,315,3.5,0.0,88,0.00,CLR,,0.00,WeatherDisplay:10.37,2013-06-12 04:32:00,
2013-06-12 00:37:00,69.1,65.7,29.79,South,180,3.5,3.5,89,0.00,CLR,,0.00,WeatherDisplay:10.37,2013-06-12 04:37:00,
2013-06-12 00:42:00,69.1,65.7,29.79,NW,315,3.5,3.5,89,0.00,CLR,,0.00,WeatherDisplay:10.37,2013-06-12 04:42:00,
2013-06-12 00:47:00,69.1,65.7,29.79,SE,135,2.3,0.0,89,0.00,CLR,,0.00,WeatherDisplay:10.37,2013-06-12 04:47:00,
2013-06-12 00:52:00,69.1,65.7,29.78,NNE,22,1.2,0.0,89,0.00,CLR,,0.00,WeatherDisplay:10.37,2013-06-12 04:52:00,
2013-06-12 00:57:00,68.7,65.3,29.79,NE,45,1.2,0.0,89,0.00,CLR,,0.00,WeatherDisplay:10.37,2013-06-12 04:57:00,
2013-06-12 01:02:00,68.7,65.3,29.78,South,180,3.5,3.5,89,0.00,CLR,,0.00,WeatherDisplay:10.37,2013-06-12 05:02:00,
2013-06-12 01:07:00,68.7,65.3,29.79,South,180,3.5,3.5,89,0.00,CLR,,0.00,WeatherDisplay:10.37,2013-06-12 05:07:00,
2013-06-12 01:12:00,68.4,65.3,29.79,West,270,1.2,1.2,90,0.00,CLR,,0.00,WeatherDisplay:10.37,2013-06-12 05:12:00,
2013-06-12 01:17:00,68.2,65.1,29.79,NW,315,2.3,0.0,90,0.00,CLR,,0.00,WeatherDisplay:10.37,2013-06-12 05:17:00,
2013-06-12 01:22:00,68.2,65.5,29.79,SW,225,1.2,0.0,91,0.00,CLR,,0.00,WeatherDisplay:10.37,2013-06-12 05:22:00,
2013-06-12 01:27:00,68.2,65.5,29.79,West,270,1.2,0.0,91,0.00,CLR,,0.00,WeatherDisplay:10.37,2013-06-12 05:27:00,
2013-06-12 01:32:00,68.0,65.3,29.79,West,270,1.2,0.0,91,0.00,CLR,,0.00,WeatherDisplay:10.37,2013-06-12 05:32:00,
2013-06-12 01:37:00,68.0,65.3,29.79,NW,315,1.2,1.2,91,0.00,CLR,,0.00,WeatherDisplay:10.37,2013-06-12 05:37:00,
2013-06-12 01:42:00,68.0,65.3,29.79,NW,315,1.2,1.2,91,0.00,CLR,,0.00,WeatherDisplay:10.37,2013-06-12 05:42:00,
2013-06-12 01:47:00,68.0,65.3,29.79,NW,315,1.2,0.0,91,0.00,CLR,,0.00,WeatherDisplay:10.37,2013-06-12 05:47:00,
2013-06-12 01:52:00,68.0,65.3,29.78,South,180,1.2,0.0,91,0.00,CLR,,0.00,WeatherDisplay:10.37,2013-06-12 05:52:00,
2013-06-12 01:57:00,67.8,65.1,29.78,West,270,2.3,0.0,91,0.00,CLR,,0.00,WeatherDisplay:10.37,2013-06-12 05:57:00,
2013-06-12 02:02:00,67.6,64.9,29.78,NE,45,1.2,0.0,91,0.00,CLR,,0.00,WeatherDisplay:10.37,2013-06-12 06:02:00,
2013-06-12 02:07:00,67.6,64.9,29.78,NE,45,1.2,0.0,91,0.00,CLR,,0.00,WeatherDisplay:10.37,2013-06-12 06:07:00,
2013-06-12 02:12:00,67.1,64.7,29.78,SW,225,2.3,0.0,92,0.00,CLR,,0.00,WeatherDisplay:10.37,2013-06-12 06:12:00,
2013-06-12 02:17:00,66.9,64.5,29.78,SW,225,1.2,1.2,92,0.00,CLR,,0.00,WeatherDisplay:10.37,2013-06-12 06:17:00,
2013-06-12 02:22:00,66.6,64.5,29.78,SW,225,2.3,2.3,93,0.00,CLR,,0.00,WeatherDisplay:10.37,2013-06-12 06:22:00,
2013-06-12 02:27:00,66.2,64.1,29.78,SW,225,2.3,2.3,93,0.00,CLR,,0.00,WeatherDisplay:10.37,2013-06-12 06:27:00,
2013-06-12 02:32:00,65.8,63.8,29.78,NW,315,1.2,0.0,93,0.00,CLR,,0.00,WeatherDisplay:10.37,2013-06-12 06:32:00,
2013-06-12 02:37:00,65.7,63.9,29.77,SW,225,1.2,0.0,94,0.00,CLR,,0.00,WeatherDisplay:10.37,2013-06-12 06:37:00,
2013-06-12 02:42:00,65.5,64.0,29.77,West,270,0.0,0.0,95,0.00,CLR,,0.00,WeatherDisplay:10.37,2013-06-12 06:42:00,
2013-06-12 02:47:00,65.5,64.0,29.77,North,0,1.2,0.0,95,0.00,CLR,,0.00,WeatherDisplay:10.37,2013-06-12 06:47:00,
2013-06-12 02:52:00,65.3,63.8,29.77,SW,225,2.3,2.3,95,0.00,CLR,,0.00,WeatherDisplay:10.37,2013-06-12 06:52:00,
2013-06-12 02:57:00,64.9,63.5,29.77,SW,225,1.2,0.0,95,0.00,CLR,,0.00,WeatherDisplay:10.37,2013-06-12 06:57:00,
2013-06-12 03:02:00,64.8,63.3,29.77,SW,225,0.0,0.0,95,0.00,CLR,,0.00,WeatherDisplay:10.37,2013-06-12 07:02:00,
2013-06-12 03:07:00,64.8,63.3,29.77,SW,225,0.0,0.0,95,0.00,CLR,,0.00,WeatherDisplay:10.37,2013-06-12 07:07:00,
2013-06-12 03:12:00,64.2,63.4,29.77,West,270,0.0,0.0,97,0.00,CLR,,0.00,WeatherDisplay:10.37,2013-06-12 07:12:00,
2013-06-12 03:17:00,64.4,63.8,29.77,NW,315,1.2,1.2,98,0.00,CLR,,0.00,WeatherDisplay:10.37,2013-06-12 07:17:00,
2013-06-12 03:22:00,64.9,64.7,29.78,North,0,2.3,2.3,99,0.00,CLR,,0.00,WeatherDisplay:10.37,2013-06-12 07:22:00,
2013-06-12 03:27:00,65.8,65.6,29.78,NW,315,3.5,3.5,99,0.00,CLR,,0.00,WeatherDisplay:10.37,2013-06-12 07:27:00,
2013-06-12 03:32:00,66.2,65.6,29.78,NW,315,2.3,2.3,98,0.00,CLR,,0.00,WeatherDisplay:10.37,2013-06-12 07:32:00,
2013-06-12 03:37:00,66.2,65.3,29.77,NW,315,1.2,1.2,97,0.00,CLR,,0.00,WeatherDisplay:10.37,2013-06-12 07:37:00,
2013-06-12 03:42:00,66.4,65.5,29.77,NNW,338,3.5,3.5,97,0.00,CLR,,0.00,WeatherDisplay:10.37,2013-06-12 07:42:00,
2013-06-12 03:47:00,66.4,65.5,29.77,North,0,2.3,2.3,97,0.00,CLR,,0.00,WeatherDisplay:10.37,2013-06-12 07:47:00,
2013-06-12 03:52:00,66.2,65.0,29.77,North,0,3.5,3.5,96,0.00,CLR,,0.00,WeatherDisplay:10.37,2013-06-12 07:52:00,
2013-06-12 03:57:00,66.0,65.1,29.78,North,0,2.3,2.3,97,0.00,CLR,,0.00,WeatherDisplay:10.37,2013-06-12 07:57:00,
2013-06-12 04:02:00,65.8,65.0,29.78,North,0,2.3,2.3,97,0.00,CLR,,0.00,WeatherDisplay:10.37,2013-06-12 08:02:00,
2013-06-12 04:07:00,65.8,65.0,29.77,North,0,1.2,1.2,97,0.00,CLR,,0.00,WeatherDisplay:10.37,2013-06-12 08:07:00,
2013-06-12 04:12:00,65.7,65.1,29.78,North,0,3.5,3.5,98,0.00,CLR,,0.00,WeatherDisplay:10.37,2013-06-12 08:12:00,
2013-06-12 04:17:00,65.7,64.8,29.79,NW,315,2.3,2.3,97,0.00,CLR,,0.00,WeatherDisplay:10.37,2013-06-12 08:17:00,
2013-06-12 04:22:00,65.7,65.1,29.79,NW,315,3.5,3.5,98,0.00,CLR,,0.00,WeatherDisplay:10.37,2013-06-12 08:22:00,
2013-06-12 04:27:00,65.8,65.3,29.80,NW,315,3.5,3.5,98,0.00,CLR,,0.00,WeatherDisplay:10.37,2013-06-12 08:27:00,
2013-06-12 04:32:00,65.8,65.0,29.79,NW,315,3.5,3.5,97,0.00,CLR,,0.00,WeatherDisplay:10.37,2013-06-12 08:32:00,
2013-06-12 04:37:00,65.8,65.0,29.80,NW,315,3.5,3.5,97,0.00,CLR,,0.00,WeatherDisplay:10.37,2013-06-12 08:37:00,
2013-06-12 04:42:00,65.8,65.0,29.80,NW,315,3.5,3.5,97,0.00,CLR,,0.00,WeatherDisplay:10.37,2013-06-12 08:42:00,
2013-06-12 04:47:00,65.8,65.0,29.81,NW,315,1.2,1.2,97,0.00,CLR,,0.00,WeatherDisplay:10.37,2013-06-12 08:47:00,
2013-06-12 04:52:00,65.8,65.0,29.81,NW,315,2.3,2.3,97,0.00,CLR,,0.00,WeatherDisplay:10.37,2013-06-12 08:52:00,
2013-06-12 04:57:00,65.7,64.8,29.81,NW,315,1.2,0.0,97,0.00,CLR,,0.00,WeatherDisplay:10.37,2013-06-12 08:57:00,
2013-06-12 05:02:00,65.5,64.6,29.81,SW,225,2.3,0.0,97,0.00,CLR,,0.00,WeatherDisplay:10.37,2013-06-12 09:02:00,
2013-06-12 05:07:00,65.1,64.2,29.81,West,270,2.3,0.0,97,0.00,CLR,,0.00,WeatherDisplay:10.37,2013-06-12 09:07:00,
2013-06-12 05:12:00,64.8,63.6,29.81,East,90,1.6,0.0,96,0.00,CLR,,0.00,WeatherDisplay:10.37,2013-06-12 09:12:00,
2013-06-12 05:17:00,64.4,63.5,29.81,SW,225,1.6,0.0,97,0.00,CLR,,0.00,WeatherDisplay:10.37,2013-06-12 09:17:00,
2013-06-12 05:22:00,64.0,63.2,29.81,SW,225,1.2,0.0,97,0.00,CLR,,0.00,WeatherDisplay:10.37,2013-06-12 09:22:00,
2013-06-12 05:27:00,63.9,63.3,29.81,NW,315,0.0,0.0,98,0.00,CLR,,0.00,WeatherDisplay:10.37,2013-06-12 09:27:00,
2013-06-12 05:32:00,63.5,62.9,29.81,NW,315,0.0,0.0,98,0.00,CLR,,0.00,WeatherDisplay:10.37,2013-06-12 09:32:00,
2013-06-12 05:37:00,63.3,63.0,29.81,South,180,0.0,0.0,99,0.00,CLR,,0.00,WeatherDisplay:10.37,2013-06-12 09:37:00,
2013-06-12 05:42:00,63.1,62.9,29.81,North,0,0.0,0.0,99,0.00,CLR,,0.00,WeatherDisplay:10.37,2013-06-12 09:42:00,
2013-06-12 05:47:00,63.0,62.7,29.80,North,0,0.0,0.0,99,0.00,CLR,,0.00,WeatherDisplay:10.37,2013-06-12 09:47:00,
2013-06-12 05:52:00,63.0,62.7,29.80,North,0,1.2,0.0,99,0.00,CLR,,0.00,WeatherDisplay:10.37,2013-06-12 09:52:00,
2013-06-12 05:57:00,62.8,62.5,29.80,NE,45,1.2,1.6,99,0.00,CLR,,0.00,WeatherDisplay:10.37,2013-06-12 09:57:00,
2013-06-12 06:02:00,62.8,62.5,29.80,NE,45,1.2,0.0,99,0.00,CLR,,0.00,WeatherDisplay:10.37,2013-06-12 10:02:00,
2013-06-12 06:07:00,62.6,62.3,29.79,North,0,1.2,0.0,99,0.00,CLR,,0.00,WeatherDisplay:10.37,2013-06-12 10:07:00,
2013-06-12 06:12:00,62.6,62.3,29.80,NE,45,1.2,0.0,99,0.00,CLR,,0.00,WeatherDisplay:10.37,2013-06-12 10:12:00,
2013-06-12 06:17:00,62.4,62.1,29.80,East,90,0.0,0.0,99,0.00,CLR,,0.00,WeatherDisplay:10.37,2013-06-12 10:17:00,
2013-06-12 06:22:00,62.4,62.1,29.79,NE,45,1.2,0.0,99,0.00,CLR,,0.00,WeatherDisplay:10.37,2013-06-12 10:22:00,
2013-06-12 06:27:00,62.4,62.1,29.80,North,0,1.2,1.2,99,0.00,CLR,,0.00,WeatherDisplay:10.37,2013-06-12 10:27:00,
2013-06-12 06:33:00,62.4,62.1,29.81,NE,45,1.2,1.2,99,0.00,CLR,,0.00,WeatherDisplay:10.37,2013-06-12 10:33:00,
2013-06-12 06:38:00,62.8,62.5,29.81,North,0,1.2,0.0,99,0.00,CLR,,0.00,WeatherDisplay:10.37,2013-06-12 10:38:00,
2013-06-12 06:43:00,62.8,62.5,29.81,SW,225,0.0,0.0,99,0.00,CLR,,0.00,WeatherDisplay:10.37,2013-06-12 10:43:00,
2013-06-12 06:48:00,63.0,62.7,29.82,West,270,0.0,0.0,99,0.00,CLR,,0.00,WeatherDisplay:10.37,2013-06-12 10:48:00,
2013-06-12 06:53:00,63.0,62.7,29.82,SW,225,1.2,0.0,99,0.00,CLR,,0.00,WeatherDisplay:10.37,2013-06-12 10:53:00,
2013-06-12 06:58:00,63.1,62.9,29.82,SW,225,1.2,1.2,99,0.00,CLR,,0.00,WeatherDisplay:10.37,2013-06-12 10:58:00,
2013-06-12 07:03:00,63.3,63.0,29.82,SW,225,1.6,1.6,99,0.00,CLR,,0.00,WeatherDisplay:10.37,2013-06-12 11:03:00,
2013-06-12 07:08:00,63.9,63.6,29.82,SW,225,1.2,0.0,99,0.00,CLR,,0.00,WeatherDisplay:10.37,2013-06-12 11:08:00,
2013-06-12 07:13:00,64.2,63.9,29.82,SW,225,0.0,0.0,99,0.00,CLR,,0.00,WeatherDisplay:10.37,2013-06-12 11:13:00,
2013-06-12 07:18:00,64.9,64.7,29.82,SW,225,1.6,0.0,99,0.00,CLR,,0.00,WeatherDisplay:10.37,2013-06-12 11:18:00,
2013-06-12 07:23:00,65.5,65.2,29.82,South,180,0.0,0.0,99,0.00,CLR,,0.00,WeatherDisplay:10.37,2013-06-12 11:23:00,
2013-06-12 07:28:00,66.0,65.7,29.82,South,180,1.2,0.0,99,0.00,CLR,,0.00,WeatherDisplay:10.37,2013-06-12 11:28:00,
2013-06-12 07:33:00,66.4,66.1,29.81,South,180,0.0,0.0,99,0.00,CLR,,0.00,WeatherDisplay:10.37,2013-06-12 11:33:00,
2013-06-12 07:38:00,66.7,66.5,29.81,SE,135,0.0,0.0,99,0.00,CLR,,0.00,WeatherDisplay:10.37,2013-06-12 11:38:00,
2013-06-12 07:43:00,66.9,66.6,29.81,SE,135,1.2,0.0,99,0.00,CLR,,0.00,WeatherDisplay:10.37,2013-06-12 11:43:00,
2013-06-12 07:48:00,67.3,67.0,29.81,SW,225,0.0,0.0,99,0.00,CLR,,0.00,WeatherDisplay:10.37,2013-06-12 11:48:00,
2013-06-12 07:53:00,67.5,67.2,29.81,SW,225,2.3,2.3,99,0.00,CLR,,0.00,WeatherDisplay:10.37,2013-06-12 11:53:00,
2013-06-12 07:58:00,67.6,67.3,29.82,West,270,1.2,0.0,99,0.00,CLR,,0.00,WeatherDisplay:10.37,2013-06-12 11:58:00,
2013-06-12 08:03:00,67.8,67.5,29.82,SW,225,2.3,2.3,99,0.00,CLR,,0.00,WeatherDisplay:10.37,2013-06-12 12:03:00,
2013-06-12 08:08:00,68.4,68.1,29.82,SW,225,2.3,0.0,99,0.00,CLR,,0.00,WeatherDisplay:10.37,2013-06-12 12:08:00,
2013-06-12 08:13:00,68.9,68.6,29.82,SW,225,2.3,0.0,99,0.00,CLR,,0.00,WeatherDisplay:10.37,2013-06-12 12:13:00,
2013-06-12 08:18:00,69.4,69.1,29.82,SW,225,3.5,3.5,99,0.00,CLR,,0.00,WeatherDisplay:10.37,2013-06-12 12:18:00,
2013-06-12 08:23:00,69.8,69.5,29.81,SW,225,3.5,3.5,99,0.00,CLR,,0.00,WeatherDisplay:10.37,2013-06-12 12:23:00,
2013-06-12 08:28:00,70.2,69.9,29.81,West,270,2.3,0.0,99,0.00,CLR,,0.00,WeatherDisplay:10.37,2013-06-12 12:28:00,
2013-06-12 08:33:00,70.5,70.2,29.82,SW,225,1.2,0.0,99,0.00,CLR,,0.00,WeatherDisplay:10.37,2013-06-12 12:33:00,
2013-06-12 08:38:00,71.1,70.2,29.81,West,270,0.0,0.0,97,0.00,CLR,,0.00,WeatherDisplay:10.37,2013-06-12 12:38:00,
2013-06-12 08:43:00,71.4,70.2,29.82,SW,225,1.2,1.2,96,0.00,CLR,,0.00,WeatherDisplay:10.37,2013-06-12 12:43:00,
2013-06-12 08:48:00,71.8,70.3,29.82,SW,225,2.3,0.0,95,0.00,CLR,,0.00,WeatherDisplay:10.37,2013-06-12 12:48:00,
2013-06-12 08:53:00,72.0,70.1,29.82,SW,225,3.1,3.1,94,0.00,CLR,,0.00,WeatherDisplay:10.37,2013-06-12 12:53:00,
2013-06-12 08:58:00,72.5,70.4,29.82,SW,225,3.5,3.5,93,0.00,CLR,,0.00,WeatherDisplay:10.37,2013-06-12 12:58:00,
2013-06-12 09:03:00,72.7,70.5,29.81,SSW,202,3.5,3.5,93,0.00,CLR,,0.00,WeatherDisplay:10.37,2013-06-12 13:03:00,
2013-06-12 09:08:00,73.4,70.9,29.81,South,180,3.5,3.5,92,0.00,CLR,,0.00,WeatherDisplay:10.37,2013-06-12 13:08:00,
2013-06-12 09:13:00,73.8,70.6,29.82,South,180,1.2,0.0,90,0.00,CLR,,0.00,WeatherDisplay:10.37,2013-06-12 13:13:00,
2013-06-12 09:18:00,74.1,70.7,29.81,SW,225,2.3,2.3,89,0.00,CLR,,0.00,WeatherDisplay:10.37,2013-06-12 13:18:00,
2013-06-12 09:23:00,74.3,70.8,29.81,SE,135,2.3,0.0,89,0.00,CLR,,0.00,WeatherDisplay:10.37,2013-06-12 13:23:00,
2013-06-12 09:28:00,74.3,70.5,29.81,SE,135,1.2,0.0,88,0.00,CLR,,0.00,WeatherDisplay:10.37,2013-06-12 13:28:00,
2013-06-12 09:33:00,74.3,70.5,29.81,SSW,202,3.5,3.5,88,0.00,CLR,,0.00,WeatherDisplay:10.37,2013-06-12 13:33:00,
2013-06-12 09:38:00,74.3,70.5,29.81,SW,225,3.5,0.0,88,0.00,CLR,,0.00,WeatherDisplay:10.37,2013-06-12 13:38:00,
2013-06-12 09:43:00,74.5,70.4,29.81,South,180,2.3,0.0,87,0.00,CLR,,0.00,WeatherDisplay:10.37,2013-06-12 13:43:00,
2013-06-12 09:48:00,74.8,70.7,29.82,SW,225,3.5,3.5,87,0.00,CLR,,0.00,WeatherDisplay:10.37,2013-06-12 13:48:00,
2013-06-12 09:53:00,75.0,70.9,29.81,SW,225,1.2,0.0,87,0.00,CLR,,0.00,WeatherDisplay:10.37,2013-06-12 13:53:00,
2013-06-12 09:58:00,75.4,70.9,29.81,SE,135,1.2,0.0,86,0.00,CLR,,0.00,WeatherDisplay:10.37,2013-06-12 13:58:00,
2013-06-12 10:03:00,75.4,70.9,29.82,SE,135,1.2,0.0,86,0.00,CLR,,0.00,WeatherDisplay:10.37,2013-06-12 14:03:00,
2013-06-12 10:08:00,75.6,70.7,29.81,SW,225,2.3,2.3,85,0.00,CLR,,0.00,WeatherDisplay:10.37,2013-06-12 14:08:00,
2013-06-12 10:13:00,75.9,71.1,29.81,South,180,2.3,0.0,85,0.00,CLR,,0.00,WeatherDisplay:10.37,2013-06-12 14:13:00,
2013-06-12 10:18:00,76.3,71.4,29.81,East,90,1.2,0.0,85,0.00,CLR,,0.00,WeatherDisplay:10.37,2013-06-12 14:18:00,
2013-06-12 10:23:00,76.6,71.4,29.82,SW,225,2.3,2.3,84,0.00,CLR,,0.00,WeatherDisplay:10.37,2013-06-12 14:23:00,
2013-06-12 10:28:00,76.6,71.1,29.82,SW,225,3.5,3.5,83,0.00,CLR,,0.00,WeatherDisplay:10.37,2013-06-12 14:28:00,
2013-06-12 10:33:00,76.6,71.1,29.83,SW,225,4.6,4.6,83,0.00,CLR,,0.00,WeatherDisplay:10.37,2013-06-12 14:33:00,
2013-06-12 10:38:00,76.3,70.4,29.83,SW,225,4.6,4.6,82,0.00,CLR,,0.00,WeatherDisplay:10.37,2013-06-12 14:38:00,
2013-06-12 10:43:00,75.9,70.4,29.84,SW,225,4.6,4.6,83,0.00,CLR,,0.00,WeatherDisplay:10.37,2013-06-12 14:43:00,
2013-06-12 10:48:00,75.7,70.2,29.85,SW,225,4.6,4.6,83,0.00,CLR,,0.00,WeatherDisplay:10.37,2013-06-12 14:48:00,
2013-06-12 10:53:00,75.6,70.7,29.85,SW,225,8.1,8.1,85,0.00,CLR,,0.00,WeatherDisplay:10.37,2013-06-12 14:53:00,
2013-06-12 10:58:00,75.2,70.4,29.85,SW,225,8.1,8.1,85,0.00,CLR,,0.00,WeatherDisplay:10.37,2013-06-12 14:58:00,
2013-06-12 11:03:00,75.2,70.4,29.85,SW,225,4.6,4.6,85,0.00,CLR,,0.00,WeatherDisplay:10.37,2013-06-12 15:03:00,
2013-06-12 11:08:00,75.0,70.5,29.85,WSW,248,6.9,6.9,86,0.00,CLR,,0.00,WeatherDisplay:10.37,2013-06-12 15:08:00,
2013-06-12 11:13:00,74.8,70.4,29.85,SW,225,3.5,3.5,86,0.00,CLR,,0.00,WeatherDisplay:10.37,2013-06-12 15:13:00,
2013-06-12 11:18:00,75.0,70.5,29.84,SW,225,2.3,0.0,86,0.00,CLR,,0.00,WeatherDisplay:10.37,2013-06-12 15:18:00,
2013-06-12 11:23:00,75.4,71.2,29.84,SW,225,2.3,0.0,87,0.00,CLR,,0.00,WeatherDisplay:10.37,2013-06-12 15:23:00,
2013-06-12 11:28:00,76.1,71.6,29.83,SE,135,2.3,0.0,86,0.00,CLR,,0.00,WeatherDisplay:10.37,2013-06-12 15:28:00,
2013-06-12 11:33:00,76.8,72.0,29.82,SE,135,1.2,0.0,85,0.00,CLR,,0.00,WeatherDisplay:10.37,2013-06-12 15:33:00,
2013-06-12 11:38:00,77.5,72.0,29.81,SE,135,3.5,0.0,83,0.00,CLR,,0.00,WeatherDisplay:10.37,2013-06-12 15:38:00,
2013-06-12 11:43:00,77.5,71.6,29.79,SE,135,3.5,3.5,82,0.00,CLR,,0.00,WeatherDisplay:10.37,2013-06-12 15:43:00,
2013-06-12 11:48:00,77.7,71.4,29.79,South,180,3.5,3.5,81,0.00,CLR,,0.00,WeatherDisplay:10.37,2013-06-12 15:48:00,
2013-06-12 11:53:00,77.7,71.4,29.78,NE,45,3.5,3.5,81,0.00,CLR,,0.00,WeatherDisplay:10.37,2013-06-12 15:53:00,
2013-06-12 11:58:00,77.5,71.2,29.77,South,180,3.5,0.0,81,0.00,CLR,,0.00,WeatherDisplay:10.37,2013-06-12 15:58:00,
2013-06-12 12:03:00,77.7,71.4,29.78,ESE,112,5.8,5.8,81,0.00,CLR,,0.00,WeatherDisplay:10.37,2013-06-12 16:03:00,
2013-06-12 12:08:00,78.3,71.9,29.77,East,90,5.8,0.0,81,0.00,CLR,,0.00,WeatherDisplay:10.37,2013-06-12 16:08:00,
2013-06-12 12:13:00,78.1,71.0,29.75,East,90,2.3,0.0,79,0.00,CLR,,0.00,WeatherDisplay:10.37,2013-06-12 16:13:00,
2013-06-12 12:18:00,77.5,70.5,29.73,SSE,158,6.9,6.9,79,0.00,CLR,,0.00,WeatherDisplay:10.37,2013-06-12 16:18:00,
2013-06-12 12:23:00,77.2,70.2,29.74,SE,135,4.6,4.6,79,0.00,CLR,,0.00,WeatherDisplay:10.37,2013-06-12 16:23:00,
2013-06-12 12:28:00,77.4,70.7,29.74,North,0,4.6,4.6,80,0.00,CLR,,0.00,WeatherDisplay:10.37,2013-06-12 16:28:00,
2013-06-12 12:33:00,77.4,70.7,29.75,East,90,2.3,2.3,80,0.00,CLR,,0.00,WeatherDisplay:10.37,2013-06-12 16:33:00,
2013-06-12 12:38:00,77.7,70.7,29.74,NE,45,4.6,0.0,79,0.00,CLR,,0.00,WeatherDisplay:10.37,2013-06-12 16:38:00,
2013-06-12 12:43:00,77.7,70.7,29.75,South,180,5.8,5.8,79,0.00,CLR,,0.00,WeatherDisplay:10.37,2013-06-12 16:43:00,
2013-06-12 12:48:00,78.1,71.0,29.74,South,180,3.5,3.5,79,0.00,CLR,,0.00,WeatherDisplay:10.37,2013-06-12 16:48:00,
2013-06-12 12:53:00,78.3,70.8,29.73,South,180,6.9,6.9,78,0.00,CLR,,0.00,WeatherDisplay:10.37,2013-06-12 16:53:00,
2013-06-12 12:58:00,79.0,71.5,29.73,South,180,5.8,5.8,78,0.00,CLR,,0.00,WeatherDisplay:10.37,2013-06-12 16:58:00,
2013-06-12 13:03:00,79.2,71.3,29.73,SW,225,4.6,4.6,77,0.00,CLR,,0.00,WeatherDisplay:10.37,2013-06-12 17:03:00,
2013-06-12 13:08:00,80.1,71.4,29.74,SSE,158,8.1,8.1,75,0.00,CLR,,0.00,WeatherDisplay:10.37,2013-06-12 17:08:00,
2013-06-12 13:13:00,80.6,71.5,29.74,South,180,8.1,8.1,74,0.00,CLR,,0.00,WeatherDisplay:10.37,2013-06-12 17:13:00,
2013-06-12 13:18:00,80.8,71.7,29.75,SW,225,11.5,11.5,74,0.00,CLR,,0.00,WeatherDisplay:10.37,2013-06-12 17:18:00,
2013-06-12 13:23:00,80.8,70.9,29.77,NW,315,13.8,13.8,72,0.00,CLR,,0.00,WeatherDisplay:10.37,2013-06-12 17:23:00,
2013-06-12 13:28:00,79.9,70.0,29.80,SW,225,16.1,16.1,72,0.00,CLR,,0.00,WeatherDisplay:10.37,2013-06-12 17:28:00,
2013-06-12 13:33:00,79.0,70.0,29.81,WSW,248,16.1,16.1,74,0.00,CLR,,0.00,WeatherDisplay:10.37,2013-06-12 17:33:00,
2013-06-12 13:38:00,78.3,70.1,29.81,WNW,292,12.7,12.7,76,0.00,CLR,,0.00,WeatherDisplay:10.37,2013-06-12 17:38:00,
2013-06-12 13:43:00,77.9,70.5,29.81,SW,225,12.7,12.7,78,0.00,CLR,,0.00,WeatherDisplay:10.37,2013-06-12 17:43:00,
2013-06-12 13:48:00,77.5,70.1,29.77,East,90,9.2,9.2,78,0.00,CLR,,0.00,WeatherDisplay:10.37,2013-06-12 17:48:00,
2013-06-12 13:53:00,76.6,69.6,29.72,East,90,8.1,8.1,79,0.00,CLR,,0.00,WeatherDisplay:10.37,2013-06-12 17:53:00,
2013-06-12 13:58:00,75.9,70.0,29.76,WSW,248,5.8,5.8,82,0.00,CLR,,0.00,WeatherDisplay:10.37,2013-06-12 17:58:00,
2013-06-12 14:03:00,75.9,70.4,29.78,WSW,248,9.2,9.2,83,0.00,CLR,,0.00,WeatherDisplay:10.37,2013-06-12 18:03:00,
2013-06-12 14:08:00,76.5,70.9,29.81,North,0,11.5,11.5,83,0.00,CLR,,0.00,WeatherDisplay:10.37,2013-06-12 18:08:00,
2013-06-12 14:13:00,76.8,71.3,29.82,SW,225,8.1,8.1,83,0.00,CLR,,0.00,WeatherDisplay:10.37,2013-06-12 18:13:00,
2013-06-12 14:18:00,77.2,71.3,29.79,NW,315,8.1,8.1,82,0.00,CLR,,0.00,WeatherDisplay:10.37,2013-06-12 18:18:00,
2013-06-12 14:23:00,77.7,71.4,29.77,SW,225,3.5,3.5,81,0.00,CLR,,0.00,WeatherDisplay:10.37,2013-06-12 18:23:00,
2013-06-12 14:28:00,78.6,71.6,29.75,SE,135,2.3,2.3,79,0.00,CLR,,0.00,WeatherDisplay:10.37,2013-06-12 18:28:00,
2013-06-12 14:33:00,78.8,71.0,29.75,South,180,2.3,0.0,77,0.00,CLR,,0.00,WeatherDisplay:10.37,2013-06-12 18:33:00,
2013-06-12 14:38:00,79.3,71.9,29.75,East,90,3.5,3.5,78,0.00,CLR,,0.00,WeatherDisplay:10.37,2013-06-12 18:38:00,
2013-06-12 14:43:00,79.9,71.6,29.76,SW,225,4.6,4.6,76,0.00,CLR,,0.00,WeatherDisplay:10.37,2013-06-12 18:43:00,
2013-06-12 14:48:00,79.9,71.2,29.75,SE,135,3.5,3.5,75,0.00,CLR,,0.00,WeatherDisplay:10.37,2013-06-12 18:48:00,
2013-06-12 14:53:00,79.5,70.5,29.75,South,180,5.8,5.8,74,0.00,CLR,,0.00,WeatherDisplay:10.37,2013-06-12 18:53:00,
2013-06-12 14:58:00,78.8,69.8,29.73,East,90,8.1,0.0,74,0.00,CLR,,0.00,WeatherDisplay:10.37,2013-06-12 18:58:00,
2013-06-12 15:03:00,78.6,70.0,29.73,ESE,112,2.3,2.3,75,0.00,CLR,,0.00,WeatherDisplay:10.37,2013-06-12 19:03:00,
2013-06-12 15:08:00,77.9,70.1,29.73,East,90,5.8,5.8,77,0.00,CLR,,0.00,WeatherDisplay:10.37,2013-06-12 19:08:00,
2013-06-12 15:13:00,77.7,70.3,29.75,North,0,1.2,1.2,78,0.00,CLR,,0.00,WeatherDisplay:10.37,2013-06-12 19:13:00,
2013-06-12 15:19:00,77.5,70.1,29.78,WSW,248,4.6,4.6,78,0.00,CLR,,0.00,WeatherDisplay:10.37,2013-06-12 19:19:00,
2013-06-12 15:24:00,77.7,70.7,29.77,SW,225,10.4,10.4,79,0.00,CLR,,0.00,WeatherDisplay:10.37,2013-06-12 19:24:00,
2013-06-12 15:29:00,78.6,71.6,29.76,SW,225,2.3,2.3,79,0.00,CLR,,0.00,WeatherDisplay:10.37,2013-06-12 19:29:00,
2013-06-12 15:34:00,79.9,71.6,29.77,West,270,4.6,0.0,76,0.00,CLR,,0.00,WeatherDisplay:10.37,2013-06-12 19:34:00,
2013-06-12 15:39:00,80.2,71.2,29.76,NE,45,2.3,2.3,74,0.00,CLR,,0.00,WeatherDisplay:10.37,2013-06-12 19:39:00,
2013-06-12 15:44:00,79.3,69.9,29.76,North,0,3.5,0.0,73,0.00,CLR,,0.00,WeatherDisplay:10.37,2013-06-12 19:44:00,
2013-06-12 15:49:00,79.0,70.0,29.75,North,0,1.2,1.6,74,0.00,CLR,,0.00,WeatherDisplay:10.37,2013-06-12 19:49:00,
2013-06-12 15:54:00,78.8,69.8,29.75,NE,45,3.5,0.0,74,0.00,CLR,,0.00,WeatherDisplay:10.37,2013-06-12 19:54:00,
2013-06-12 15:59:00,78.3,70.5,29.74,South,180,4.6,0.0,77,0.00,CLR,,0.00,WeatherDisplay:10.37,2013-06-12 19:59:00,
2013-06-12 16:04:00,78.1,71.0,29.76,SW,225,8.1,8.1,79,0.00,CLR,,0.00,WeatherDisplay:10.37,2013-06-12 20:04:00,
2013-06-12 16:09:00,77.5,72.3,29.77,SE,135,8.1,0.0,84,0.00,CLR,,0.00,WeatherDisplay:10.37,2013-06-12 20:09:00,
2013-06-12 16:14:00,77.9,73.4,29.76,South,180,0.0,0.7,86,0.00,CLR,,0.00,WeatherDisplay:10.37,2013-06-12 20:14:00,
2013-06-12 16:19:00,78.3,73.4,29.76,SW,225,0.0,0.0,85,0.00,CLR,,0.00,WeatherDisplay:10.37,2013-06-12 20:19:00,
2013-06-12 16:24:00,78.1,71.8,29.75,North,0,3.5,3.5,81,0.00,CLR,,0.00,WeatherDisplay:10.37,2013-06-12 20:24:00,
2013-06-12 16:29:00,77.5,71.2,29.75,East,90,1.2,0.0,81,0.00,CLR,,0.00,WeatherDisplay:10.37,2013-06-12 20:29:00,
2013-06-12 16:34:00,77.4,71.8,29.75,SE,135,1.2,0.0,83,0.00,CLR,,0.00,WeatherDisplay:10.37,2013-06-12 20:34:00,
2013-06-12 16:39:00,77.7,72.1,29.75,SE,135,0.0,0.0,83,0.00,CLR,,0.00,WeatherDisplay:10.37,2013-06-12 20:39:00,
2013-06-12 16:44:00,78.1,71.8,29.75,North,0,1.2,0.0,81,0.00,CLR,,0.00,WeatherDisplay:10.37,2013-06-12 20:44:00,
2013-06-12 16:49:00,77.9,71.6,29.75,East,90,1.2,0.0,81,0.00,CLR,,0.00,WeatherDisplay:10.37,2013-06-12 20:49:00,
2013-06-12 16:54:00,77.7,71.4,29.74,East,90,1.2,0.0,81,0.00,CLR,,0.00,WeatherDisplay:10.37,2013-06-12 20:54:00,
2013-06-12 16:59:00,77.7,72.5,29.74,NE,45,1.2,0.0,84,0.00,CLR,,0.00,WeatherDisplay:10.37,2013-06-12 20:59:00,
2013-06-12 17:04:00,77.5,72.3,29.73,NE,45,0.0,0.0,84,0.00,CLR,,0.00,WeatherDisplay:10.37,2013-06-12 21:04:00,
2013-06-12 17:09:00,77.0,72.1,29.74,North,0,1.2,1.6,85,0.00,CLR,,0.00,WeatherDisplay:10.37,2013-06-12 21:09:00,
2013-06-12 17:14:00,76.1,71.6,29.74,North,0,2.3,2.3,86,0.00,CLR,,0.00,WeatherDisplay:10.37,2013-06-12 21:14:00,
2013-06-12 17:19:00,75.7,72.6,29.73,SE,135,2.3,2.3,90,0.00,CLR,,0.00,WeatherDisplay:10.37,2013-06-12 21:19:00,
2013-06-12 17:24:00,75.9,72.8,29.73,North,0,1.2,1.2,90,0.00,CLR,,0.00,WeatherDisplay:10.37,2013-06-12 21:24:00,
2013-06-12 17:29:00,75.7,72.3,29.74,NE,45,2.3,0.0,89,0.00,CLR,,0.00,WeatherDisplay:10.37,2013-06-12 21:29:00,
2013-06-12 17:34:00,75.6,72.4,29.74,North,0,1.2,0.0,90,0.00,CLR,,0.00,WeatherDisplay:10.37,2013-06-12 21:34:00,
2013-06-12 17:39:00,75.7,72.9,29.74,East,90,0.0,0.0,91,0.00,CLR,,0.00,WeatherDisplay:10.37,2013-06-12 21:39:00,
2013-06-12 17:44:00,75.9,73.4,29.73,South,180,1.2,0.0,92,0.00,CLR,,0.00,WeatherDisplay:10.37,2013-06-12 21:44:00,
2013-06-12 17:49:00,75.7,72.9,29.74,South,180,1.2,0.0,91,0.00,CLR,,0.00,WeatherDisplay:10.37,2013-06-12 21:49:00,
2013-06-12 17:54:00,75.7,73.2,29.74,South,180,0.0,0.0,92,0.00,CLR,,0.00,WeatherDisplay:10.37,2013-06-12 21:54:00,
2013-06-12 17:59:00,75.9,73.7,29.74,South,180,0.0,0.0,93,0.00,CLR,,0.00,WeatherDisplay:10.37,2013-06-12 21:59:00,
2013-06-12 18:04:00,75.9,73.7,29.74,South,180,0.0,0.0,93,0.00,CLR,,0.00,WeatherDisplay:10.37,2013-06-12 22:04:00,
2013-06-12 18:09:00,75.9,73.7,29.74,South,180,0.0,0.0,93,0.00,CLR,,0.00,WeatherDisplay:10.37,2013-06-12 22:09:00,
2013-06-12 18:14:00,76.3,74.1,29.73,South,180,2.3,0.0,93,0.00,CLR,,0.00,WeatherDisplay:10.37,2013-06-12 22:14:00,
2013-06-12 18:19:00,76.3,74.1,29.73,NE,45,1.2,0.0,93,0.00,CLR,,0.00,WeatherDisplay:10.37,2013-06-12 22:19:00,
2013-06-12 18:24:00,75.9,73.1,29.73,North,0,1.2,0.0,91,0.00,CLR,,0.00,WeatherDisplay:10.37,2013-06-12 22:24:00,
2013-06-12 18:29:00,75.7,73.6,29.73,SE,135,1.2,1.2,93,0.00,CLR,,0.00,WeatherDisplay:10.37,2013-06-12 22:29:00,